createdAt,value
2023-06-23T00:02:15.632Z,58.17
2023-06-23T00:05:18.225Z,57.86
2023-06-23T00:08:20.515Z,58.33
2023-06-23T00:11:22.807Z,58.18
2023-06-23T00:14:24.968Z,58.41
2023-06-23T00:17:27.261Z,58.62
2023-06-23T00:20:29.783Z,58.64
2023-06-23T00:23:32.564Z,58.78
2023-06-23T00:26:35.432Z,59.37
2023-06-23T00:29:38.476Z,58.57
2023-06-23T00:32:41.704Z,58.95
2023-06-23T00:35:44.406Z,58.14
2023-06-23T00:38:46.641Z,57.67
2023-06-23T00:41:49.800Z,57.40
2023-06-23T00:44:52.642Z,57.33
2023-06-23T00:47:55.070Z,57.10
2023-06-23T00:50:57.458Z,57.13
2023-06-23T00:53:59.710Z,56.85
2023-06-23T00:57:05.630Z,56.97
2023-06-23T01:00:19.473Z,56.70
2023-06-23T01:03:24.523Z,57.23
2023-06-23T01:06:51.166Z,57.81
2023-06-23T01:10:05.137Z,57.91
2023-06-23T01:13:32.125Z,57.99
2023-06-23T01:16:46.003Z,58.54
2023-06-23T01:20:17.320Z,58.44
2023-06-23T01:23:22.685Z,58.61
2023-06-23T01:26:27.865Z,57.92
2023-06-23T01:29:31.317Z,58.10
2023-06-23T01:32:42.922Z,57.91
2023-06-23T01:35:47.385Z,58.12
2023-06-23T01:38:53.513Z,57.99
2023-06-23T01:42:01.684Z,57.92
2023-06-23T01:45:05.628Z,57.48
2023-06-23T01:48:09.348Z,57.77
2023-06-23T01:51:12.228Z,57.81
2023-06-23T01:54:15.620Z,57.48
2023-06-23T01:57:19.666Z,56.99
2023-06-23T02:00:23.298Z,57.46
2023-06-23T02:03:27.971Z,56.96
2023-06-23T02:06:31.568Z,57.34
2023-06-23T02:09:35.803Z,57.25
2023-06-23T02:12:40.855Z,57.20
2023-06-23T02:15:43.614Z,56.92
2023-06-23T02:18:46.145Z,56.97
2023-06-23T02:21:49.650Z,56.90
2023-06-23T02:24:55.032Z,57.28
2023-06-23T02:27:57.862Z,56.60
2023-06-23T02:31:02.876Z,56.78
2023-06-23T02:34:05.244Z,56.42
2023-06-23T02:37:12.620Z,56.56
2023-06-23T02:40:18.171Z,56.59
2023-06-23T02:43:26.177Z,56.46
2023-06-23T02:46:35.163Z,57.17
2023-06-23T02:49:38.990Z,56.98
2023-06-23T02:52:46.780Z,56.65
2023-06-23T02:55:51.111Z,56.93
2023-06-23T02:58:57.286Z,56.68
2023-06-23T03:01:59.828Z,56.41
2023-06-23T03:05:02.767Z,56.19
2023-06-23T03:08:06.833Z,56.21
2023-06-23T03:11:09.120Z,56.03
2023-06-23T03:14:13.618Z,56.00
2023-06-23T03:17:16.358Z,56.01
2023-06-23T03:20:26.096Z,55.82
2023-06-23T03:23:29.749Z,55.95
2023-06-23T03:26:37.321Z,55.93
2023-06-23T03:29:42.056Z,55.74
2023-06-23T03:32:48.905Z,55.53
2023-06-23T03:35:54.145Z,55.88
2023-06-23T03:39:01.196Z,55.76
2023-06-23T03:42:04.275Z,55.76
2023-06-23T03:45:08.232Z,56.14
2023-06-23T03:48:12.967Z,55.45
2023-06-23T03:51:17.708Z,55.41
2023-06-23T03:54:22.112Z,55.13
2023-06-23T03:57:28.403Z,55.02
2023-06-23T04:00:32.746Z,55.09
2023-06-23T04:03:37.978Z,54.75
2023-06-23T04:06:40.696Z,54.96
2023-06-23T04:09:46.332Z,55.64
2023-06-23T04:12:49.905Z,55.04
2023-06-23T04:15:53.606Z,54.34
2023-06-23T04:18:56.231Z,54.21
2023-06-23T04:21:59.242Z,53.84
2023-06-23T04:25:02.300Z,53.74
2023-06-23T04:28:06.244Z,54.05
2023-06-23T04:31:09.837Z,53.98
2023-06-23T04:34:12.208Z,53.63
2023-06-23T04:37:16.973Z,53.57
2023-06-23T04:40:27.366Z,54.50
2023-06-23T04:43:33.242Z,54.72
2023-06-23T04:46:38.061Z,54.16
2023-06-23T04:49:40.873Z,54.18
2023-06-23T04:52:47.848Z,54.03
2023-06-23T04:55:54.927Z,53.75
2023-06-23T04:58:58.480Z,53.40
2023-06-23T05:02:03.649Z,54.13
2023-06-23T05:05:08.357Z,53.53
2023-06-23T05:08:11.919Z,53.72
2023-06-23T05:11:15.272Z,53.66
2023-06-23T05:14:18.171Z,53.83
2023-06-23T05:17:21.911Z,53.35
2023-06-23T05:20:24.923Z,53.24
2023-06-23T05:23:29.547Z,52.40
2023-06-23T05:26:35.392Z,52.20
2023-06-23T05:29:40.963Z,52.43
2023-06-23T05:32:44.234Z,52.30
2023-06-23T05:35:48.981Z,51.90
2023-06-23T05:38:53.770Z,51.97
2023-06-23T05:41:56.401Z,51.56
2023-06-23T05:44:58.639Z,50.77
2023-06-23T05:48:04.132Z,49.88
2023-06-23T05:51:08.760Z,49.90
2023-06-23T05:54:12.279Z,49.44
2023-06-23T05:57:30.212Z,49.12
2023-06-23T06:00:37.669Z,50.32
2023-06-23T06:04:07.687Z,49.36
2023-06-23T06:07:11.358Z,49.28
2023-06-23T06:10:14.128Z,48.81
2023-06-23T06:13:18.325Z,47.81
2023-06-23T06:16:21.184Z,47.29
2023-06-23T06:19:25.449Z,48.23
2023-06-23T06:22:28.063Z,47.18
2023-06-23T06:25:31.252Z,47.89
2023-06-23T06:28:34.799Z,46.34
2023-06-23T06:31:37.869Z,46.08
2023-06-23T06:34:41.826Z,45.82
2023-06-23T06:37:48.923Z,45.30
2023-06-23T06:40:54.588Z,44.74
2023-06-23T06:43:58.395Z,44.29
2023-06-23T06:47:02.806Z,43.89
2023-06-23T06:50:05.686Z,42.72
2023-06-23T06:53:08.743Z,42.62
2023-06-23T06:56:11.436Z,39.18
2023-06-23T06:59:14.009Z,33.91
2023-06-23T07:02:16.996Z,30.36
2023-06-23T07:05:19.251Z,28.19
2023-06-23T07:08:21.517Z,27.33
2023-06-23T07:11:23.820Z,25.85
2023-06-23T07:14:26.311Z,25.35
2023-06-23T07:17:29.057Z,26.34
2023-06-23T07:20:31.620Z,25.97
2023-06-23T07:23:34.169Z,28.27
2023-06-23T07:26:38.461Z,27.39
2023-06-23T07:29:40.705Z,28.01
2023-06-23T07:32:46.784Z,29.09
2023-06-23T07:35:49.146Z,31.27
2023-06-23T07:38:51.376Z,32.64
2023-06-23T07:41:53.633Z,32.98
2023-06-23T07:44:55.884Z,33.26
2023-06-23T07:47:58.187Z,32.04
2023-06-23T07:51:00.473Z,31.44
2023-06-23T07:54:07.524Z,30.03
2023-06-23T07:57:11.180Z,29.92
2023-06-23T08:00:14.100Z,30.34
2023-06-23T08:03:16.498Z,32.03
2023-06-23T08:06:24.537Z,32.36
2023-06-23T08:09:26.923Z,32.41
2023-06-23T08:12:29.103Z,32.76
2023-06-23T08:15:31.565Z,32.80
2023-06-23T08:18:34.022Z,34.36
2023-06-23T08:21:36.841Z,36.65
2023-06-23T08:24:39.212Z,38.70
2023-06-23T08:27:41.545Z,39.57
2023-06-23T08:30:43.928Z,39.21
2023-06-23T08:33:46.413Z,38.10
2023-06-23T08:36:48.681Z,38.69
2023-06-23T08:39:50.947Z,39.10
2023-06-23T08:42:54.002Z,39.20
2023-06-23T08:46:00.238Z,39.35
2023-06-23T08:49:06.411Z,38.88
2023-06-23T08:52:12.617Z,39.45
2023-06-23T08:55:15.891Z,40.00
2023-06-23T08:58:20.263Z,40.50
2023-06-23T09:01:23.014Z,42.30
2023-06-23T09:04:26.416Z,41.35
2023-06-23T09:07:29.746Z,40.83
2023-06-23T09:10:32.345Z,42.21
2023-06-23T09:13:40.249Z,41.22
2023-06-23T09:16:42.863Z,41.61
2023-06-23T09:19:48.306Z,40.43
2023-06-23T09:22:50.852Z,41.07
2023-06-23T09:25:57.260Z,41.09
2023-06-23T09:29:16.610Z,42.86
2023-06-23T09:32:29.404Z,42.00
2023-06-23T09:35:32.313Z,42.48
2023-06-23T09:38:39.633Z,41.40
2023-06-23T09:41:56.272Z,42.58
2023-06-23T09:44:58.582Z,42.45
2023-06-23T09:48:00.989Z,43.07
2023-06-23T09:51:05.079Z,43.06
2023-06-23T09:54:07.513Z,43.81
2023-06-23T09:57:13.790Z,43.43
2023-06-23T10:00:17.091Z,43.93
2023-06-23T10:03:19.800Z,43.93
2023-06-23T10:06:26.886Z,43.69
2023-06-23T10:09:29.157Z,43.98
2023-06-23T10:12:31.428Z,43.85
2023-06-23T10:15:33.678Z,44.03
2023-06-23T10:18:35.989Z,43.47
2023-06-23T10:21:40.215Z,43.14
2023-06-23T10:24:52.851Z,42.52
2023-06-23T10:27:57.041Z,42.66
2023-06-23T10:30:59.966Z,42.71
2023-06-23T10:34:06.267Z,43.12
2023-06-23T10:37:12.048Z,43.35
2023-06-23T10:40:20.995Z,43.86
2023-06-23T10:43:25.614Z,43.67
2023-06-23T10:46:28.096Z,43.69
2023-06-23T10:49:30.427Z,44.08
2023-06-23T10:52:32.774Z,43.79
2023-06-23T10:55:37.845Z,44.40
2023-06-23T10:58:51.337Z,44.42
2023-06-23T11:02:08.156Z,44.51
2023-06-23T11:05:17.002Z,44.65
2023-06-23T11:08:19.372Z,44.97
2023-06-23T11:11:31.144Z,44.91
2023-06-23T11:14:44.000Z,44.77
2023-06-23T11:17:47.426Z,44.80
2023-06-23T11:20:50.510Z,45.02
2023-06-23T11:24:10.752Z,44.78
2023-06-23T11:27:13.045Z,44.95
2023-06-23T11:30:18.376Z,45.00
2023-06-23T11:33:30.564Z,45.26
2023-06-23T11:36:33.723Z,44.97
2023-06-23T11:39:36.375Z,44.94
2023-06-23T11:42:45.709Z,44.96
2023-06-23T11:45:57.978Z,44.88
2023-06-23T11:49:09.597Z,45.02
2023-06-23T11:52:13.147Z,44.90
2023-06-23T11:55:15.409Z,45.03
2023-06-23T11:58:18.694Z,44.67
2023-06-23T12:01:21.014Z,44.85
2023-06-23T12:04:23.623Z,44.45
2023-06-23T12:07:29.860Z,44.43
2023-06-23T12:10:39.023Z,44.51
2023-06-23T12:13:42.165Z,44.85
2023-06-23T12:16:44.668Z,44.47
2023-06-23T12:19:47.221Z,44.87
2023-06-23T12:22:50.958Z,44.87
2023-06-23T12:25:54.587Z,45.03
2023-06-23T12:29:09.434Z,45.36
2023-06-23T12:32:11.941Z,44.97
2023-06-23T12:35:19.710Z,44.46
2023-06-23T12:38:23.851Z,43.97
2023-06-23T12:41:29.185Z,43.85
2023-06-23T12:44:33.009Z,44.28
2023-06-23T12:47:35.447Z,44.63
2023-06-23T12:50:42.072Z,46.08
2023-06-23T12:53:44.731Z,46.36
2023-06-23T12:56:46.995Z,46.26
2023-06-23T12:59:49.198Z,46.30
2023-06-23T13:02:54.083Z,45.86
2023-06-23T13:05:57.337Z,45.29
2023-06-23T13:09:00.605Z,45.62
2023-06-23T13:12:02.943Z,43.98
2023-06-23T13:15:06.113Z,43.36
2023-06-23T13:18:08.563Z,43.11
2023-06-23T13:21:10.822Z,43.62
2023-06-23T13:24:13.150Z,42.88
2023-06-23T13:27:15.726Z,42.92
2023-06-23T13:30:18.067Z,43.26
2023-06-23T13:33:23.232Z,43.22
2023-06-23T13:36:25.631Z,42.64
2023-06-23T13:39:28.026Z,43.34
2023-06-23T13:42:31.003Z,43.75
2023-06-23T13:45:33.548Z,44.03
2023-06-23T13:48:35.968Z,43.19
2023-06-23T13:51:38.578Z,43.57
2023-06-23T13:54:40.854Z,43.42
2023-06-23T13:57:45.876Z,43.37
2023-06-23T14:00:48.905Z,43.35
2023-06-23T14:03:53.150Z,42.35
2023-06-23T14:06:55.523Z,42.24
2023-06-23T14:09:57.960Z,42.50
2023-06-23T14:13:00.225Z,42.48
2023-06-23T14:16:04.844Z,42.76
2023-06-23T14:19:07.625Z,42.81
2023-06-23T14:22:09.949Z,41.70
2023-06-23T14:25:12.179Z,43.10
2023-06-23T14:28:14.411Z,41.68
2023-06-23T14:31:16.747Z,41.97
2023-06-23T14:34:19.105Z,41.79
2023-06-23T14:37:21.335Z,41.69
2023-06-23T14:40:23.641Z,42.67
2023-06-23T14:43:26.258Z,42.05
2023-06-23T14:46:28.513Z,42.49
2023-06-23T14:49:30.797Z,42.20
2023-06-23T14:52:33.346Z,41.27
2023-06-23T14:55:36.895Z,41.05
2023-06-23T14:58:39.653Z,40.83
2023-06-23T15:01:42.040Z,40.63
2023-06-23T15:04:44.305Z,40.46
2023-06-23T15:07:46.611Z,40.93
2023-06-23T15:10:55.033Z,40.66
2023-06-23T15:13:57.210Z,41.10
2023-06-23T15:17:00.130Z,40.94
2023-06-23T15:20:02.499Z,41.26
2023-06-23T15:23:04.929Z,41.68
2023-06-23T15:26:07.385Z,41.95
2023-06-23T15:29:09.729Z,41.86
2023-06-23T15:32:12.068Z,41.42
2023-06-23T15:35:14.381Z,41.38
2023-06-23T15:38:16.840Z,40.89
2023-06-23T15:41:19.132Z,40.79
2023-06-23T15:44:21.317Z,41.54
2023-06-23T15:47:23.539Z,42.06
2023-06-23T15:50:25.802Z,42.16
2023-06-23T15:53:28.008Z,41.14
2023-06-23T15:56:30.231Z,41.07
2023-06-23T15:59:32.535Z,40.26
2023-06-23T16:02:34.854Z,40.67
2023-06-23T16:05:38.861Z,41.80
2023-06-23T16:08:44.084Z,42.47
2023-06-23T16:11:46.360Z,41.66
2023-06-23T16:14:48.648Z,42.23
2023-06-23T16:17:53.312Z,41.09
2023-06-23T16:20:55.617Z,40.97
2023-06-23T16:23:57.849Z,39.95
2023-06-23T16:27:00.188Z,39.52
2023-06-23T16:30:03.334Z,39.76
2023-06-23T16:33:05.768Z,39.20
2023-06-23T16:36:08.101Z,39.80
2023-06-23T16:39:10.419Z,38.90
2023-06-23T16:42:12.700Z,38.52
2023-06-23T16:45:15.197Z,37.87
2023-06-23T16:48:17.439Z,38.19
2023-06-23T16:51:28.639Z,36.60
2023-06-23T16:54:39.384Z,36.92
2023-06-23T16:57:43.480Z,36.89
2023-06-23T17:00:45.740Z,36.57
2023-06-23T17:03:48.127Z,36.96
2023-06-23T17:06:50.545Z,36.72
2023-06-23T17:09:52.955Z,37.52
2023-06-23T17:12:55.281Z,38.74
2023-06-23T17:15:57.649Z,39.31
2023-06-23T17:19:03.572Z,39.22
2023-06-23T17:22:06.171Z,39.23
2023-06-23T17:28:42.283Z,39.49
2023-06-23T17:31:46.389Z,40.07
2023-06-23T17:34:50.152Z,40.37
2023-06-23T17:37:52.288Z,40.49
2023-06-23T17:40:54.433Z,40.15
2023-06-23T17:43:56.669Z,40.46
2023-06-23T17:46:59.152Z,40.77
2023-06-23T17:50:01.456Z,41.13
2023-06-23T17:53:04.452Z,41.37
2023-06-23T17:56:06.826Z,40.97
2023-06-23T17:59:10.629Z,40.67
2023-06-23T18:02:16.341Z,39.74
2023-06-23T18:05:20.698Z,39.64
2023-06-23T18:08:23.014Z,39.46
2023-06-23T18:11:25.265Z,39.24
2023-06-23T18:14:27.484Z,39.21
2023-06-23T18:17:31.012Z,39.12
2023-06-23T18:20:33.838Z,38.14
2023-06-23T18:23:36.320Z,37.53
2023-06-23T18:26:38.559Z,37.78
2023-06-23T18:29:40.834Z,37.44
2023-06-23T18:32:43.119Z,37.36
2023-06-23T18:35:45.264Z,37.87
2023-06-23T18:38:47.457Z,37.41
2023-06-23T18:41:49.596Z,37.57
2023-06-23T18:44:52.789Z,36.98
2023-06-23T18:47:55.026Z,37.09
2023-06-23T18:50:57.260Z,37.26
2023-06-23T18:53:59.496Z,37.60
2023-06-23T18:57:02.090Z,37.79
2023-06-23T19:00:06.863Z,38.25
2023-06-23T19:03:09.448Z,37.92
2023-06-23T19:06:13.785Z,38.28
2023-06-23T19:09:16.529Z,38.18
2023-06-23T19:12:18.836Z,38.38
2023-06-23T19:15:21.081Z,38.88
2023-06-23T19:18:23.340Z,39.38
2023-06-23T19:21:25.728Z,39.03
2023-06-23T19:24:28.114Z,40.19
2023-06-23T19:27:30.368Z,39.59
2023-06-23T19:30:32.817Z,39.37
2023-06-23T19:33:35.754Z,39.45
2023-06-23T19:36:37.969Z,39.13
2023-06-23T19:39:51.156Z,39.32
2023-06-23T19:43:01.996Z,41.09
2023-06-23T19:46:04.251Z,42.22
2023-06-23T19:49:06.383Z,43.51
2023-06-23T19:52:08.714Z,45.85
2023-06-23T19:55:11.708Z,48.46
2023-06-23T19:58:20.141Z,49.31
2023-06-23T20:01:22.540Z,50.31
2023-06-23T20:04:25.018Z,50.29
2023-06-23T20:07:27.392Z,51.16
2023-06-23T20:10:29.790Z,51.67
2023-06-23T20:13:32.966Z,51.25
2023-06-23T20:16:35.276Z,50.22
2023-06-23T20:19:37.790Z,49.08
2023-06-23T20:22:40.173Z,50.05
2023-06-23T20:25:42.642Z,50.87
2023-06-23T20:28:45.889Z,53.65
2023-06-23T20:31:48.197Z,53.60
2023-06-23T20:34:50.621Z,55.49
2023-06-23T20:37:52.743Z,55.10
2023-06-23T20:40:55.592Z,53.83
2023-06-23T20:43:57.853Z,55.33
2023-06-23T20:47:00.324Z,54.42
2023-06-23T20:50:02.766Z,52.93
2023-06-23T20:53:04.943Z,53.47
2023-06-23T20:56:07.162Z,53.35
2023-06-23T20:59:09.520Z,54.61
2023-06-23T21:02:11.828Z,56.17
2023-06-23T21:05:14.258Z,56.70
2023-06-23T21:08:17.317Z,57.81
2023-06-23T21:11:19.632Z,58.23
2023-06-23T21:14:21.925Z,57.62
2023-06-23T21:17:24.300Z,57.25
2023-06-23T21:20:27.386Z,57.65
2023-06-23T21:23:31.381Z,58.06
2023-06-23T21:26:36.647Z,59.69
2023-06-23T21:29:38.858Z,60.37
2023-06-23T21:32:41.242Z,61.00
2023-06-23T21:35:44.186Z,61.51
2023-06-23T21:38:46.540Z,61.26
2023-06-23T21:41:48.919Z,60.46
2023-06-23T21:44:51.333Z,60.50
2023-06-23T21:47:53.601Z,59.85
2023-06-23T21:50:55.953Z,59.97
2023-06-23T21:53:58.167Z,59.60
2023-06-23T21:57:01.252Z,60.79
2023-06-23T22:00:04.430Z,60.18
2023-06-23T22:03:15.909Z,60.26
2023-06-23T22:06:18.154Z,61.51
2023-06-23T22:09:20.290Z,59.43
2023-06-23T22:12:22.547Z,60.07
2023-06-23T22:15:24.831Z,60.66
2023-06-23T22:21:32.725Z,59.18
2023-06-23T22:24:35.045Z,58.35
2023-06-23T22:27:37.297Z,59.54
2023-06-23T22:30:39.636Z,59.39
2023-06-23T22:33:41.911Z,58.62
2023-06-23T22:36:44.301Z,59.49
2023-06-23T22:39:46.567Z,58.72
2023-06-23T22:42:48.799Z,59.43
2023-06-23T22:45:51.114Z,57.54
2023-06-23T22:48:57.193Z,57.62
2023-06-23T22:51:59.781Z,57.35
2023-06-23T22:55:02.041Z,58.12
2023-06-23T22:58:04.383Z,58.32
2023-06-23T23:01:06.717Z,57.83
2023-06-23T23:04:10.283Z,58.20
2023-06-23T23:07:14.030Z,58.51
2023-06-23T23:10:16.425Z,58.84
2023-06-23T23:13:18.694Z,58.24
2023-06-23T23:16:26.514Z,58.46
2023-06-23T23:19:30.177Z,58.49
2023-06-23T23:22:32.481Z,59.79
2023-06-23T23:25:35.040Z,57.63
2023-06-23T23:28:37.270Z,58.27
2023-06-23T23:31:43.649Z,57.46
2023-06-23T23:34:45.910Z,58.07
2023-06-23T23:37:48.182Z,57.67
2023-06-23T23:40:50.518Z,57.04
2023-06-23T23:43:54.321Z,57.27
2023-06-23T23:46:56.687Z,56.92
2023-06-23T23:49:58.972Z,57.23
2023-06-23T23:53:02.564Z,56.51
2023-06-23T23:56:05.351Z,56.82
2023-06-23T23:59:07.504Z,57.86
